sensor_id;sensor_type;location;lat;lon;timestamp;temperature;humidity
8862;DHT22;4799;50.996;4.754;2023-07-30T00:01:33;16.30;99.90
8862;DHT22;4799;50.996;4.754;2023-07-30T00:03:59;16.30;99.90
8862;DHT22;4799;50.996;4.754;2023-07-30T00:06:24;16.30;99.90
8862;DHT22;4799;50.996;4.754;2023-07-30T00:08:50;16.20;99.90
8862;DHT22;4799;50.996;4.754;2023-07-30T00:11:16;16.20;99.90
8862;DHT22;4799;50.996;4.754;2023-07-30T00:13:43;16.10;99.90
8862;DHT22;4799;50.996;4.754;2023-07-30T00:16:09;16.10;99.90
8862;DHT22;4799;50.996;4.754;2023-07-30T00:18:34;16.10;99.90
8862;DHT22;4799;50.996;4.754;2023-07-30T00:21:00;16.10;99.90
8862;DHT22;4799;50.996;4.754;2023-07-30T00:23:26;16.00;99.90
8862;DHT22;4799;50.996;4.754;2023-07-30T00:25:51;15.90;99.90
8862;DHT22;4799;50.996;4.754;2023-07-30T00:28:17;15.90;99.90
8862;DHT22;4799;50.996;4.754;2023-07-30T00:30:43;15.90;99.90
8862;DHT22;4799;50.996;4.754;2023-07-30T00:33:09;15.90;99.90
8862;DHT22;4799;50.996;4.754;2023-07-30T00:35:35;15.90;99.90
8862;DHT22;4799;50.996;4.754;2023-07-30T00:38:00;15.90;99.90
8862;DHT22;4799;50.996;4.754;2023-07-30T00:40:26;15.90;99.90
8862;DHT22;4799;50.996;4.754;2023-07-30T00:42:52;15.90;99.90
8862;DHT22;4799;50.996;4.754;2023-07-30T00:45:17;15.90;99.90
8862;DHT22;4799;50.996;4.754;2023-07-30T00:47:43;15.90;99.90
8862;DHT22;4799;50.996;4.754;2023-07-30T00:50:11;15.90;99.90
8862;DHT22;4799;50.996;4.754;2023-07-30T00:52:38;15.90;99.90
8862;DHT22;4799;50.996;4.754;2023-07-30T00:55:05;15.90;99.90
8862;DHT22;4799;50.996;4.754;2023-07-30T00:57:32;15.90;99.90
8862;DHT22;4799;50.996;4.754;2023-07-30T00:59:58;15.90;99.90
8862;DHT22;4799;50.996;4.754;2023-07-30T01:02:24;15.90;99.90
8862;DHT22;4799;50.996;4.754;2023-07-30T01:04:50;15.80;99.90
8862;DHT22;4799;50.996;4.754;2023-07-30T01:07:17;15.80;99.90
8862;DHT22;4799;50.996;4.754;2023-07-30T01:09:42;15.70;99.90
8862;DHT22;4799;50.996;4.754;2023-07-30T01:12:08;15.70;99.90
8862;DHT22;4799;50.996;4.754;2023-07-30T01:14:35;15.70;99.90
8862;DHT22;4799;50.996;4.754;2023-07-30T01:17:04;15.60;99.90
8862;DHT22;4799;50.996;4.754;2023-07-30T01:19:30;15.60;99.90
8862;DHT22;4799;50.996;4.754;2023-07-30T01:21:56;15.60;99.90
8862;DHT22;4799;50.996;4.754;2023-07-30T01:24:22;15.60;99.90
8862;DHT22;4799;50.996;4.754;2023-07-30T01:27:07;15.60;99.90
8862;DHT22;4799;50.996;4.754;2023-07-30T01:29:42;15.50;99.90
8862;DHT22;4799;50.996;4.754;2023-07-30T01:32:11;15.60;99.90
8862;DHT22;4799;50.996;4.754;2023-07-30T01:34:39;15.60;99.90
8862;DHT22;4799;50.996;4.754;2023-07-30T01:37:09;15.70;99.90
8862;DHT22;4799;50.996;4.754;2023-07-30T01:39:36;15.80;99.90
8862;DHT22;4799;50.996;4.754;2023-07-30T01:42:04;15.90;99.90
8862;DHT22;4799;50.996;4.754;2023-07-30T01:44:30;16.00;99.90
8862;DHT22;4799;50.996;4.754;2023-07-30T01:46:55;16.10;99.90
8862;DHT22;4799;50.996;4.754;2023-07-30T01:49:21;16.20;99.90
8862;DHT22;4799;50.996;4.754;2023-07-30T01:51:47;16.20;99.90
8862;DHT22;4799;50.996;4.754;2023-07-30T01:54:13;16.30;99.90
8862;DHT22;4799;50.996;4.754;2023-07-30T01:56:39;16.30;99.90
8862;DHT22;4799;50.996;4.754;2023-07-30T01:59:05;16.30;99.90
8862;DHT22;4799;50.996;4.754;2023-07-30T02:01:30;16.30;99.90
8862;DHT22;4799;50.996;4.754;2023-07-30T02:03:56;16.40;99.90
8862;DHT22;4799;50.996;4.754;2023-07-30T02:06:22;16.40;99.90
8862;DHT22;4799;50.996;4.754;2023-07-30T02:08:48;16.40;99.90
8862;DHT22;4799;50.996;4.754;2023-07-30T02:11:13;16.40;99.90
8862;DHT22;4799;50.996;4.754;2023-07-30T02:13:39;16.50;99.90
8862;DHT22;4799;50.996;4.754;2023-07-30T02:16:05;16.40;99.90
8862;DHT22;4799;50.996;4.754;2023-07-30T02:18:30;16.50;99.90
8862;DHT22;4799;50.996;4.754;2023-07-30T02:20:56;16.40;99.90
8862;DHT22;4799;50.996;4.754;2023-07-30T02:23:22;16.40;99.90
8862;DHT22;4799;50.996;4.754;2023-07-30T02:25:47;16.40;99.90
8862;DHT22;4799;50.996;4.754;2023-07-30T02:28:13;16.40;99.90
8862;DHT22;4799;50.996;4.754;2023-07-30T02:30:39;16.40;99.90
8862;DHT22;4799;50.996;4.754;2023-07-30T02:33:05;16.40;99.90
8862;DHT22;4799;50.996;4.754;2023-07-30T02:35:30;16.40;99.90
8862;DHT22;4799;50.996;4.754;2023-07-30T02:37:56;16.40;99.90
8862;DHT22;4799;50.996;4.754;2023-07-30T02:40:22;16.30;99.90
8862;DHT22;4799;50.996;4.754;2023-07-30T02:42:47;16.20;99.90
8862;DHT22;4799;50.996;4.754;2023-07-30T02:45:13;16.20;99.90
8862;DHT22;4799;50.996;4.754;2023-07-30T02:47:39;16.10;99.90
8862;DHT22;4799;50.996;4.754;2023-07-30T02:50:05;16.10;99.90
8862;DHT22;4799;50.996;4.754;2023-07-30T02:52:34;16.00;99.90
8862;DHT22;4799;50.996;4.754;2023-07-30T02:54:59;16.00;99.90
8862;DHT22;4799;50.996;4.754;2023-07-30T02:57:25;16.00;99.90
8862;DHT22;4799;50.996;4.754;2023-07-30T02:59:51;15.90;99.90
8862;DHT22;4799;50.996;4.754;2023-07-30T03:02:16;15.90;99.90
8862;DHT22;4799;50.996;4.754;2023-07-30T03:04:42;15.90;99.90
8862;DHT22;4799;50.996;4.754;2023-07-30T03:07:09;15.90;99.90
8862;DHT22;4799;50.996;4.754;2023-07-30T03:09:35;15.90;99.90
8862;DHT22;4799;50.996;4.754;2023-07-30T03:12:00;15.90;99.90
8862;DHT22;4799;50.996;4.754;2023-07-30T03:14:26;15.80;99.90
8862;DHT22;4799;50.996;4.754;2023-07-30T03:16:52;15.80;99.90
8862;DHT22;4799;50.996;4.754;2023-07-30T03:19:18;15.90;99.90
8862;DHT22;4799;50.996;4.754;2023-07-30T03:21:43;15.90;99.90
8862;DHT22;4799;50.996;4.754;2023-07-30T03:24:09;15.90;99.90
8862;DHT22;4799;50.996;4.754;2023-07-30T03:26:35;15.90;99.90
8862;DHT22;4799;50.996;4.754;2023-07-30T03:29:00;16.00;99.90
8862;DHT22;4799;50.996;4.754;2023-07-30T03:31:26;16.00;99.90
8862;DHT22;4799;50.996;4.754;2023-07-30T03:33:54;16.10;99.90
8862;DHT22;4799;50.996;4.754;2023-07-30T03:36:19;16.20;99.90
8862;DHT22;4799;50.996;4.754;2023-07-30T03:38:45;16.30;99.90
8862;DHT22;4799;50.996;4.754;2023-07-30T03:41:11;16.30;99.90
8862;DHT22;4799;50.996;4.754;2023-07-30T03:43:37;16.40;99.90
8862;DHT22;4799;50.996;4.754;2023-07-30T03:46:03;16.40;99.90
8862;DHT22;4799;50.996;4.754;2023-07-30T03:48:28;16.50;99.90
8862;DHT22;4799;50.996;4.754;2023-07-30T03:50:55;16.50;99.90
8862;DHT22;4799;50.996;4.754;2023-07-30T03:53:21;16.60;99.90
8862;DHT22;4799;50.996;4.754;2023-07-30T03:55:46;16.60;99.90
8862;DHT22;4799;50.996;4.754;2023-07-30T03:58:12;16.60;99.90
8862;DHT22;4799;50.996;4.754;2023-07-30T04:00:38;16.60;99.90
8862;DHT22;4799;50.996;4.754;2023-07-30T04:03:04;16.70;99.90
8862;DHT22;4799;50.996;4.754;2023-07-30T04:05:30;16.70;99.90
8862;DHT22;4799;50.996;4.754;2023-07-30T04:07:56;16.70;99.90
8862;DHT22;4799;50.996;4.754;2023-07-30T04:10:22;16.70;99.90
8862;DHT22;4799;50.996;4.754;2023-07-30T04:12:48;16.70;99.90
8862;DHT22;4799;50.996;4.754;2023-07-30T04:15:15;16.70;99.90
8862;DHT22;4799;50.996;4.754;2023-07-30T04:17:41;16.80;99.90
8862;DHT22;4799;50.996;4.754;2023-07-30T04:20:08;16.80;99.90
8862;DHT22;4799;50.996;4.754;2023-07-30T04:22:38;16.80;99.90
8862;DHT22;4799;50.996;4.754;2023-07-30T04:25:04;16.80;99.90
8862;DHT22;4799;50.996;4.754;2023-07-30T04:27:30;16.80;99.90
8862;DHT22;4799;50.996;4.754;2023-07-30T04:29:55;16.80;99.90
8862;DHT22;4799;50.996;4.754;2023-07-30T04:32:21;16.90;99.90
8862;DHT22;4799;50.996;4.754;2023-07-30T04:34:47;16.90;99.90
8862;DHT22;4799;50.996;4.754;2023-07-30T04:37:13;17.00;99.90
8862;DHT22;4799;50.996;4.754;2023-07-30T04:39:38;17.00;99.90
8862;DHT22;4799;50.996;4.754;2023-07-30T04:42:04;17.00;99.90
8862;DHT22;4799;50.996;4.754;2023-07-30T04:44:30;17.00;99.90
8862;DHT22;4799;50.996;4.754;2023-07-30T04:46:56;17.00;99.90
8862;DHT22;4799;50.996;4.754;2023-07-30T04:49:22;17.10;99.90
8862;DHT22;4799;50.996;4.754;2023-07-30T04:51:47;17.10;99.90
8862;DHT22;4799;50.996;4.754;2023-07-30T04:54:13;17.10;99.90
8862;DHT22;4799;50.996;4.754;2023-07-30T04:56:38;17.10;99.90
8862;DHT22;4799;50.996;4.754;2023-07-30T04:59:04;17.10;99.90
8862;DHT22;4799;50.996;4.754;2023-07-30T05:01:30;17.10;99.90
8862;DHT22;4799;50.996;4.754;2023-07-30T05:03:56;17.10;99.90
8862;DHT22;4799;50.996;4.754;2023-07-30T05:06:23;17.10;99.90
8862;DHT22;4799;50.996;4.754;2023-07-30T05:08:48;17.10;99.90
8862;DHT22;4799;50.996;4.754;2023-07-30T05:11:14;17.10;99.90
8862;DHT22;4799;50.996;4.754;2023-07-30T05:13:40;17.20;99.90
8862;DHT22;4799;50.996;4.754;2023-07-30T05:16:06;17.20;99.90
8862;DHT22;4799;50.996;4.754;2023-07-30T05:18:32;17.20;99.90
8862;DHT22;4799;50.996;4.754;2023-07-30T05:20:57;17.20;99.90
8862;DHT22;4799;50.996;4.754;2023-07-30T05:23:23;17.30;99.90
8862;DHT22;4799;50.996;4.754;2023-07-30T05:25:49;17.30;99.90
8862;DHT22;4799;50.996;4.754;2023-07-30T05:28:15;17.30;99.90
8862;DHT22;4799;50.996;4.754;2023-07-30T05:30:40;17.30;99.90
8862;DHT22;4799;50.996;4.754;2023-07-30T05:33:06;17.30;99.90
8862;DHT22;4799;50.996;4.754;2023-07-30T05:35:32;17.30;99.90
8862;DHT22;4799;50.996;4.754;2023-07-30T05:37:58;17.40;99.90
8862;DHT22;4799;50.996;4.754;2023-07-30T05:40:23;17.40;99.90
8862;DHT22;4799;50.996;4.754;2023-07-30T05:42:49;17.40;99.90
8862;DHT22;4799;50.996;4.754;2023-07-30T05:45:15;17.40;99.90
8862;DHT22;4799;50.996;4.754;2023-07-30T05:47:41;17.40;99.90
8862;DHT22;4799;50.996;4.754;2023-07-30T05:50:07;17.50;99.90
8862;DHT22;4799;50.996;4.754;2023-07-30T05:52:33;17.50;99.90
8862;DHT22;4799;50.996;4.754;2023-07-30T05:54:59;17.60;99.90
8862;DHT22;4799;50.996;4.754;2023-07-30T05:57:25;17.60;99.90
8862;DHT22;4799;50.996;4.754;2023-07-30T05:59:51;17.70;99.90
8862;DHT22;4799;50.996;4.754;2023-07-30T06:02:17;17.70;99.90
8862;DHT22;4799;50.996;4.754;2023-07-30T06:04:43;17.80;99.90
8862;DHT22;4799;50.996;4.754;2023-07-30T06:07:09;17.90;99.90
8862;DHT22;4799;50.996;4.754;2023-07-30T06:09:35;17.90;99.90
8862;DHT22;4799;50.996;4.754;2023-07-30T06:12:00;18.00;99.90
8862;DHT22;4799;50.996;4.754;2023-07-30T06:14:26;18.00;99.90
8862;DHT22;4799;50.996;4.754;2023-07-30T06:16:53;18.10;99.90
8862;DHT22;4799;50.996;4.754;2023-07-30T06:19:19;18.10;99.90
8862;DHT22;4799;50.996;4.754;2023-07-30T06:21:45;18.20;99.90
8862;DHT22;4799;50.996;4.754;2023-07-30T06:24:11;18.30;99.90
8862;DHT22;4799;50.996;4.754;2023-07-30T06:26:36;18.30;99.90
8862;DHT22;4799;50.996;4.754;2023-07-30T06:29:02;18.30;99.90
8862;DHT22;4799;50.996;4.754;2023-07-30T06:31:28;18.40;99.90
8862;DHT22;4799;50.996;4.754;2023-07-30T06:33:54;18.40;99.90
8862;DHT22;4799;50.996;4.754;2023-07-30T06:36:19;18.40;99.90
8862;DHT22;4799;50.996;4.754;2023-07-30T06:38:45;18.40;99.90
8862;DHT22;4799;50.996;4.754;2023-07-30T06:41:11;18.40;99.90
8862;DHT22;4799;50.996;4.754;2023-07-30T06:43:36;18.50;99.90
8862;DHT22;4799;50.996;4.754;2023-07-30T06:46:02;18.40;99.90
8862;DHT22;4799;50.996;4.754;2023-07-30T06:48:29;18.40;99.90
8862;DHT22;4799;50.996;4.754;2023-07-30T06:50:54;18.40;99.90
8862;DHT22;4799;50.996;4.754;2023-07-30T06:53:20;18.40;99.90
8862;DHT22;4799;50.996;4.754;2023-07-30T06:55:46;18.40;99.90
8862;DHT22;4799;50.996;4.754;2023-07-30T06:58:11;18.50;99.90
8862;DHT22;4799;50.996;4.754;2023-07-30T07:00:37;18.40;99.90
8862;DHT22;4799;50.996;4.754;2023-07-30T07:03:03;18.40;99.90
8862;DHT22;4799;50.996;4.754;2023-07-30T07:05:29;18.40;99.90
8862;DHT22;4799;50.996;4.754;2023-07-30T07:07:55;18.40;99.90
8862;DHT22;4799;50.996;4.754;2023-07-30T07:10:21;18.40;99.90
8862;DHT22;4799;50.996;4.754;2023-07-30T07:12:46;18.40;99.90
8862;DHT22;4799;50.996;4.754;2023-07-30T07:15:12;18.50;99.90
8862;DHT22;4799;50.996;4.754;2023-07-30T07:17:39;18.60;99.90
8862;DHT22;4799;50.996;4.754;2023-07-30T07:20:06;18.70;99.90
8862;DHT22;4799;50.996;4.754;2023-07-30T07:22:33;18.90;99.90
8862;DHT22;4799;50.996;4.754;2023-07-30T07:24:59;19.00;99.90
8862;DHT22;4799;50.996;4.754;2023-07-30T07:27:25;19.20;99.90
8862;DHT22;4799;50.996;4.754;2023-07-30T07:29:52;19.30;99.90
8862;DHT22;4799;50.996;4.754;2023-07-30T07:32:18;19.40;99.90
8862;DHT22;4799;50.996;4.754;2023-07-30T07:34:48;19.50;99.90
8862;DHT22;4799;50.996;4.754;2023-07-30T07:37:14;19.60;99.90
8862;DHT22;4799;50.996;4.754;2023-07-30T07:39:42;19.60;99.90
8862;DHT22;4799;50.996;4.754;2023-07-30T07:42:09;19.80;99.90
8862;DHT22;4799;50.996;4.754;2023-07-30T07:44:35;20.00;99.90
8862;DHT22;4799;50.996;4.754;2023-07-30T07:47:01;20.20;99.90
8862;DHT22;4799;50.996;4.754;2023-07-30T07:49:27;20.10;99.90
8862;DHT22;4799;50.996;4.754;2023-07-30T07:51:52;20.20;99.90
8862;DHT22;4799;50.996;4.754;2023-07-30T07:54:18;20.10;99.90
8862;DHT22;4799;50.996;4.754;2023-07-30T07:56:44;20.10;99.90
8862;DHT22;4799;50.996;4.754;2023-07-30T07:59:09;20.20;99.90
8862;DHT22;4799;50.996;4.754;2023-07-30T08:01:35;20.30;99.90
8862;DHT22;4799;50.996;4.754;2023-07-30T08:04:01;20.20;99.90
8862;DHT22;4799;50.996;4.754;2023-07-30T08:06:27;20.30;99.90
8862;DHT22;4799;50.996;4.754;2023-07-30T08:08:53;20.30;99.90
8862;DHT22;4799;50.996;4.754;2023-07-30T08:11:19;20.40;99.90
8862;DHT22;4799;50.996;4.754;2023-07-30T08:13:45;20.60;99.90
8862;DHT22;4799;50.996;4.754;2023-07-30T08:16:11;20.80;99.90
8862;DHT22;4799;50.996;4.754;2023-07-30T08:18:37;21.20;99.90
8862;DHT22;4799;50.996;4.754;2023-07-30T08:21:03;21.50;99.90
8862;DHT22;4799;50.996;4.754;2023-07-30T08:23:28;21.60;99.90
8862;DHT22;4799;50.996;4.754;2023-07-30T08:25:54;21.70;99.90
8862;DHT22;4799;50.996;4.754;2023-07-30T08:28:20;21.80;99.90
8862;DHT22;4799;50.996;4.754;2023-07-30T08:30:46;21.80;99.90
8862;DHT22;4799;50.996;4.754;2023-07-30T08:33:12;21.70;99.90
8862;DHT22;4799;50.996;4.754;2023-07-30T08:35:37;21.70;99.90
8862;DHT22;4799;50.996;4.754;2023-07-30T08:38:03;21.60;99.90
8862;DHT22;4799;50.996;4.754;2023-07-30T08:40:29;21.70;99.90
8862;DHT22;4799;50.996;4.754;2023-07-30T08:42:55;21.80;99.90
8862;DHT22;4799;50.996;4.754;2023-07-30T08:45:21;21.90;99.90
8862;DHT22;4799;50.996;4.754;2023-07-30T08:47:47;22.10;99.90
8862;DHT22;4799;50.996;4.754;2023-07-30T08:50:13;22.10;99.90
8862;DHT22;4799;50.996;4.754;2023-07-30T08:52:40;22.10;99.90
8862;DHT22;4799;50.996;4.754;2023-07-30T08:55:06;22.10;99.90
8862;DHT22;4799;50.996;4.754;2023-07-30T08:57:33;22.10;99.90
8862;DHT22;4799;50.996;4.754;2023-07-30T09:00:11;22.10;99.90
8862;DHT22;4799;50.996;4.754;2023-07-30T09:02:59;22.20;99.90
8862;DHT22;4799;50.996;4.754;2023-07-30T09:05:25;22.30;99.90
8862;DHT22;4799;50.996;4.754;2023-07-30T09:07:53;22.40;99.90
8862;DHT22;4799;50.996;4.754;2023-07-30T09:10:19;22.40;99.90
8862;DHT22;4799;50.996;4.754;2023-07-30T09:12:45;22.40;99.90
8862;DHT22;4799;50.996;4.754;2023-07-30T09:15:10;22.40;99.90
8862;DHT22;4799;50.996;4.754;2023-07-30T09:17:36;22.40;99.90
8862;DHT22;4799;50.996;4.754;2023-07-30T09:20:03;22.20;99.90
8862;DHT22;4799;50.996;4.754;2023-07-30T09:22:31;22.10;99.90
8862;DHT22;4799;50.996;4.754;2023-07-30T09:25:06;21.90;99.50
8862;DHT22;4799;50.996;4.754;2023-07-30T09:27:33;21.90;99.00
8862;DHT22;4799;50.996;4.754;2023-07-30T09:30:00;21.80;99.20
8862;DHT22;4799;50.996;4.754;2023-07-30T09:32:31;21.70;98.50
8862;DHT22;4799;50.996;4.754;2023-07-30T09:35:07;21.50;97.80
8862;DHT22;4799;50.996;4.754;2023-07-30T09:37:37;21.20;96.80
8862;DHT22;4799;50.996;4.754;2023-07-30T09:40:08;21.20;98.60
8862;DHT22;4799;50.996;4.754;2023-07-30T09:42:35;21.20;98.50
8862;DHT22;4799;50.996;4.754;2023-07-30T09:45:05;21.20;99.10
8862;DHT22;4799;50.996;4.754;2023-07-30T09:47:37;21.20;99.60
8862;DHT22;4799;50.996;4.754;2023-07-30T09:50:03;21.30;99.90
8862;DHT22;4799;50.996;4.754;2023-07-30T09:52:30;21.50;99.90
8862;DHT22;4799;50.996;4.754;2023-07-30T09:54:57;21.60;99.90
8862;DHT22;4799;50.996;4.754;2023-07-30T09:57:24;21.70;99.90
8862;DHT22;4799;50.996;4.754;2023-07-30T09:59:49;21.80;99.90
8862;DHT22;4799;50.996;4.754;2023-07-30T10:02:16;21.80;99.90
8862;DHT22;4799;50.996;4.754;2023-07-30T10:04:43;21.80;99.90
8862;DHT22;4799;50.996;4.754;2023-07-30T10:07:17;21.90;99.90
8862;DHT22;4799;50.996;4.754;2023-07-30T10:09:46;21.80;99.90
8862;DHT22;4799;50.996;4.754;2023-07-30T10:12:16;21.60;99.90
8862;DHT22;4799;50.996;4.754;2023-07-30T10:14:44;21.50;99.90
8862;DHT22;4799;50.996;4.754;2023-07-30T10:17:10;21.30;99.90
8862;DHT22;4799;50.996;4.754;2023-07-30T10:19:37;21.00;99.90
8862;DHT22;4799;50.996;4.754;2023-07-30T10:22:21;20.70;99.90
8862;DHT22;4799;50.996;4.754;2023-07-30T10:24:57;20.50;99.90
8862;DHT22;4799;50.996;4.754;2023-07-30T10:27:24;20.40;99.90
8862;DHT22;4799;50.996;4.754;2023-07-30T10:30:10;20.60;99.90
8862;DHT22;4799;50.996;4.754;2023-07-30T10:32:41;20.90;99.90
8862;DHT22;4799;50.996;4.754;2023-07-30T10:35:07;21.10;99.90
8862;DHT22;4799;50.996;4.754;2023-07-30T10:37:33;21.40;99.90
8862;DHT22;4799;50.996;4.754;2023-07-30T10:39:58;21.60;99.90
8862;DHT22;4799;50.996;4.754;2023-07-30T10:42:33;21.80;99.90
8862;DHT22;4799;50.996;4.754;2023-07-30T10:44:59;21.90;99.90
8862;DHT22;4799;50.996;4.754;2023-07-30T10:47:27;22.10;99.90
8862;DHT22;4799;50.996;4.754;2023-07-30T10:49:53;22.20;99.90
8862;DHT22;4799;50.996;4.754;2023-07-30T10:52:23;22.20;99.90
8862;DHT22;4799;50.996;4.754;2023-07-30T10:54:49;22.30;99.90
8862;DHT22;4799;50.996;4.754;2023-07-30T10:57:15;22.60;99.90
8862;DHT22;4799;50.996;4.754;2023-07-30T10:59:41;22.70;99.90
8862;DHT22;4799;50.996;4.754;2023-07-30T11:02:07;23.00;99.90
8862;DHT22;4799;50.996;4.754;2023-07-30T11:04:34;23.20;99.90
8862;DHT22;4799;50.996;4.754;2023-07-30T11:07:00;23.10;99.90
8862;DHT22;4799;50.996;4.754;2023-07-30T11:09:27;23.10;99.90
8862;DHT22;4799;50.996;4.754;2023-07-30T11:11:55;23.10;99.90
8862;DHT22;4799;50.996;4.754;2023-07-30T11:14:25;23.00;99.90
8862;DHT22;4799;50.996;4.754;2023-07-30T11:16:58;23.00;99.40
8862;DHT22;4799;50.996;4.754;2023-07-30T11:19:28;23.00;99.40
8862;DHT22;4799;50.996;4.754;2023-07-30T11:21:55;23.00;99.80
8862;DHT22;4799;50.996;4.754;2023-07-30T11:24:22;23.20;99.60
8862;DHT22;4799;50.996;4.754;2023-07-30T11:26:59;23.30;98.20
8862;DHT22;4799;50.996;4.754;2023-07-30T11:29:25;23.40;97.10
8862;DHT22;4799;50.996;4.754;2023-07-30T11:31:51;23.40;96.00
8862;DHT22;4799;50.996;4.754;2023-07-30T11:34:17;23.60;96.10
8862;DHT22;4799;50.996;4.754;2023-07-30T11:36:44;23.90;96.00
8862;DHT22;4799;50.996;4.754;2023-07-30T11:39:10;24.10;94.40
8862;DHT22;4799;50.996;4.754;2023-07-30T11:41:37;24.30;93.60
8862;DHT22;4799;50.996;4.754;2023-07-30T11:44:04;24.60;93.70
8862;DHT22;4799;50.996;4.754;2023-07-30T11:46:30;24.70;93.60
8862;DHT22;4799;50.996;4.754;2023-07-30T11:49:13;24.70;92.00
8862;DHT22;4799;50.996;4.754;2023-07-30T11:51:39;24.60;91.40
8862;DHT22;4799;50.996;4.754;2023-07-30T11:54:07;24.40;91.90
8862;DHT22;4799;50.996;4.754;2023-07-30T11:56:33;24.30;92.00
8862;DHT22;4799;50.996;4.754;2023-07-30T12:01:27;24.10;92.30
8862;DHT22;4799;50.996;4.754;2023-07-30T12:03:57;24.10;92.90
8862;DHT22;4799;50.996;4.754;2023-07-30T12:06:23;24.30;93.60
8862;DHT22;4799;50.996;4.754;2023-07-30T12:08:50;24.40;93.10
8862;DHT22;4799;50.996;4.754;2023-07-30T12:11:18;24.60;93.00
8862;DHT22;4799;50.996;4.754;2023-07-30T12:13:46;24.70;92.90
8862;DHT22;4799;50.996;4.754;2023-07-30T12:16:13;24.70;91.40
8862;DHT22;4799;50.996;4.754;2023-07-30T12:18:39;24.60;91.20
8862;DHT22;4799;50.996;4.754;2023-07-30T12:21:06;24.50;91.70
8862;DHT22;4799;50.996;4.754;2023-07-30T12:23:37;24.40;91.30
8862;DHT22;4799;50.996;4.754;2023-07-30T12:26:04;24.40;91.10
8862;DHT22;4799;50.996;4.754;2023-07-30T12:28:33;24.40;90.30
8862;DHT22;4799;50.996;4.754;2023-07-30T12:31:00;24.40;85.10
8862;DHT22;4799;50.996;4.754;2023-07-30T12:33:26;24.40;85.00
8862;DHT22;4799;50.996;4.754;2023-07-30T12:35:51;24.50;85.10
8862;DHT22;4799;50.996;4.754;2023-07-30T12:38:18;24.40;81.30
8862;DHT22;4799;50.996;4.754;2023-07-30T12:40:44;24.60;82.30
8862;DHT22;4799;50.996;4.754;2023-07-30T12:43:10;24.80;82.30
8862;DHT22;4799;50.996;4.754;2023-07-30T12:45:35;25.00;79.30
8862;DHT22;4799;50.996;4.754;2023-07-30T12:48:01;25.00;77.80
8862;DHT22;4799;50.996;4.754;2023-07-30T12:50:27;25.00;75.80
8862;DHT22;4799;50.996;4.754;2023-07-30T12:52:53;25.00;73.40
8862;DHT22;4799;50.996;4.754;2023-07-30T12:55:19;25.00;73.50
8862;DHT22;4799;50.996;4.754;2023-07-30T12:57:45;25.00;73.20
8862;DHT22;4799;50.996;4.754;2023-07-30T13:00:11;25.00;73.00
8862;DHT22;4799;50.996;4.754;2023-07-30T13:02:37;25.00;73.50
8862;DHT22;4799;50.996;4.754;2023-07-30T13:05:03;25.00;73.20
8862;DHT22;4799;50.996;4.754;2023-07-30T13:07:31;25.20;73.30
8862;DHT22;4799;50.996;4.754;2023-07-30T13:10:08;25.30;71.90
8862;DHT22;4799;50.996;4.754;2023-07-30T13:12:34;25.40;71.10
8862;DHT22;4799;50.996;4.754;2023-07-30T13:15:01;25.40;71.00
8862;DHT22;4799;50.996;4.754;2023-07-30T13:17:27;25.30;70.40
8862;DHT22;4799;50.996;4.754;2023-07-30T13:19:52;25.30;71.30
8862;DHT22;4799;50.996;4.754;2023-07-30T13:22:18;25.30;72.20
8862;DHT22;4799;50.996;4.754;2023-07-30T13:24:44;25.40;72.20
8862;DHT22;4799;50.996;4.754;2023-07-30T13:27:10;25.50;69.00
8862;DHT22;4799;50.996;4.754;2023-07-30T13:29:36;25.50;68.80
8862;DHT22;4799;50.996;4.754;2023-07-30T13:32:02;25.50;70.00
8862;DHT22;4799;50.996;4.754;2023-07-30T13:34:28;25.40;68.40
8862;DHT22;4799;50.996;4.754;2023-07-30T13:36:53;25.40;69.20
8862;DHT22;4799;50.996;4.754;2023-07-30T13:39:19;25.40;70.10
8862;DHT22;4799;50.996;4.754;2023-07-30T13:41:45;25.20;68.20
8862;DHT22;4799;50.996;4.754;2023-07-30T13:44:10;25.20;68.60
8862;DHT22;4799;50.996;4.754;2023-07-30T13:46:39;25.30;69.70
8862;DHT22;4799;50.996;4.754;2023-07-30T13:49:06;25.40;68.50
8862;DHT22;4799;50.996;4.754;2023-07-30T13:51:32;25.30;67.90
8862;DHT22;4799;50.996;4.754;2023-07-30T13:54:01;25.50;68.30
8862;DHT22;4799;50.996;4.754;2023-07-30T13:56:28;25.70;66.50
8862;DHT22;4799;50.996;4.754;2023-07-30T13:58:54;26.00;65.30
8862;DHT22;4799;50.996;4.754;2023-07-30T14:01:20;26.30;64.10
8862;DHT22;4799;50.996;4.754;2023-07-30T14:03:45;26.60;63.40
8862;DHT22;4799;50.996;4.754;2023-07-30T14:06:12;26.70;62.20
8862;DHT22;4799;50.996;4.754;2023-07-30T14:08:38;26.70;61.50
8862;DHT22;4799;50.996;4.754;2023-07-30T14:11:04;26.40;61.50
8862;DHT22;4799;50.996;4.754;2023-07-30T14:13:29;26.30;62.00
8862;DHT22;4799;50.996;4.754;2023-07-30T14:15:55;26.10;61.40
8862;DHT22;4799;50.996;4.754;2023-07-30T14:18:22;25.90;59.90
8862;DHT22;4799;50.996;4.754;2023-07-30T14:20:48;25.70;60.70
8862;DHT22;4799;50.996;4.754;2023-07-30T14:23:13;25.70;61.50
8862;DHT22;4799;50.996;4.754;2023-07-30T14:25:40;25.80;62.10
8862;DHT22;4799;50.996;4.754;2023-07-30T14:28:05;25.70;60.10
8862;DHT22;4799;50.996;4.754;2023-07-30T14:30:31;25.70;59.20
8862;DHT22;4799;50.996;4.754;2023-07-30T14:32:58;25.70;59.20
8862;DHT22;4799;50.996;4.754;2023-07-30T14:35:23;25.70;59.20
8862;DHT22;4799;50.996;4.754;2023-07-30T14:37:49;25.80;59.80
8862;DHT22;4799;50.996;4.754;2023-07-30T14:40:15;26.00;60.00
8862;DHT22;4799;50.996;4.754;2023-07-30T14:42:41;26.00;60.40
8862;DHT22;4799;50.996;4.754;2023-07-30T14:45:07;26.10;61.00
8862;DHT22;4799;50.996;4.754;2023-07-30T14:47:33;26.10;61.00
8862;DHT22;4799;50.996;4.754;2023-07-30T14:49:59;25.90;62.10
8862;DHT22;4799;50.996;4.754;2023-07-30T14:52:25;25.90;63.00
8862;DHT22;4799;50.996;4.754;2023-07-30T14:54:51;25.80;63.90
8862;DHT22;4799;50.996;4.754;2023-07-30T14:57:17;25.70;65.00
8862;DHT22;4799;50.996;4.754;2023-07-30T14:59:43;25.70;65.70
8862;DHT22;4799;50.996;4.754;2023-07-30T15:02:09;25.70;66.40
8862;DHT22;4799;50.996;4.754;2023-07-30T15:04:35;25.90;67.00
8862;DHT22;4799;50.996;4.754;2023-07-30T15:07:01;26.20;67.40
8862;DHT22;4799;50.996;4.754;2023-07-30T15:09:26;26.40;66.80
8862;DHT22;4799;50.996;4.754;2023-07-30T15:11:52;26.50;66.90
8862;DHT22;4799;50.996;4.754;2023-07-30T15:14:18;26.30;66.60
8862;DHT22;4799;50.996;4.754;2023-07-30T15:16:44;26.10;67.30
8862;DHT22;4799;50.996;4.754;2023-07-30T15:19:10;25.90;68.00
8862;DHT22;4799;50.996;4.754;2023-07-30T15:21:35;25.70;69.30
8862;DHT22;4799;50.996;4.754;2023-07-30T15:24:03;25.50;70.20
8862;DHT22;4799;50.996;4.754;2023-07-30T15:26:29;25.40;71.10
8862;DHT22;4799;50.996;4.754;2023-07-30T15:28:54;25.20;72.30
8862;DHT22;4799;50.996;4.754;2023-07-30T15:31:20;25.00;73.80
8862;DHT22;4799;50.996;4.754;2023-07-30T15:33:46;24.80;75.50
8862;DHT22;4799;50.996;4.754;2023-07-30T15:36:11;24.70;77.50
8862;DHT22;4799;50.996;4.754;2023-07-30T15:38:37;24.50;80.40
8862;DHT22;4799;50.996;4.754;2023-07-30T15:41:03;24.30;88.80
8862;DHT22;4799;50.996;4.754;2023-07-30T15:43:28;23.90;93.20
8862;DHT22;4799;50.996;4.754;2023-07-30T15:45:54;23.60;95.70
8862;DHT22;4799;50.996;4.754;2023-07-30T15:48:27;23.40;98.40
8862;DHT22;4799;50.996;4.754;2023-07-30T15:50:53;23.00;99.90
8862;DHT22;4799;50.996;4.754;2023-07-30T15:53:19;22.40;99.90
8862;DHT22;4799;50.996;4.754;2023-07-30T15:55:45;22.00;99.90
8862;DHT22;4799;50.996;4.754;2023-07-30T15:58:10;21.70;99.90
8862;DHT22;4799;50.996;4.754;2023-07-30T16:00:36;21.50;99.90